createdAt,value
2023-01-22T00:00:35.617Z,101291.97
2023-01-22T00:01:38.199Z,101292.17
2023-01-22T00:02:41.436Z,101303.59
2023-01-22T00:03:46.743Z,101288.55
2023-01-22T00:04:49.870Z,101289.45
2023-01-22T00:05:56.378Z,101295.50
2023-01-22T00:06:59.558Z,101295.36
2023-01-22T00:08:02.891Z,101290.69
2023-01-22T00:09:05.736Z,101291.52
2023-01-22T00:10:10.894Z,101292.96
2023-01-22T00:11:13.877Z,101292.96
2023-01-22T00:12:16.095Z,101289.43
2023-01-22T00:13:20.116Z,101283.55
2023-01-22T00:14:23.505Z,101283.45
2023-01-22T00:15:28.594Z,101280.81
2023-01-22T00:16:31.790Z,101291.30
2023-01-22T00:17:37.788Z,101291.41
2023-01-22T00:18:41.099Z,101291.41
2023-01-22T00:19:44.308Z,101298.19
2023-01-22T00:20:49.442Z,101297.32
2023-01-22T00:21:52.813Z,101297.97
2023-01-22T00:22:56.077Z,101297.17
2023-01-22T00:23:58.698Z,101296.49
2023-01-22T00:25:01.757Z,101302.47
2023-01-22T00:26:06.342Z,101303.48
2023-01-22T00:27:09.539Z,101295.55
2023-01-22T00:28:12.495Z,101300.78
2023-01-22T00:29:17.942Z,101296.56
2023-01-22T00:30:21.166Z,101299.38
2023-01-22T00:31:24.571Z,101308.09
2023-01-22T00:32:27.779Z,101301.00
2023-01-22T00:33:31.760Z,101302.47
2023-01-22T00:34:36.096Z,101307.95
2023-01-22T00:35:39.055Z,101302.40
2023-01-22T00:36:42.046Z,101306.62
2023-01-22T00:37:47.645Z,101311.23
2023-01-22T00:38:51.218Z,101310.22
2023-01-22T00:39:55.519Z,101309.47
2023-01-22T00:41:01.740Z,101320.75
2023-01-22T00:42:05.897Z,101314.52
2023-01-22T00:43:08.108Z,101320.03
2023-01-22T00:44:14.899Z,101319.16
2023-01-22T00:45:17.727Z,101319.34
2023-01-22T00:46:23.712Z,101323.52
2023-01-22T00:47:26.856Z,101325.04
2023-01-22T00:48:32.811Z,101325.14
2023-01-22T00:49:35.938Z,101321.80
2023-01-22T00:50:39.158Z,101328.75
2023-01-22T00:51:41.653Z,101325.33
2023-01-22T00:52:44.867Z,101329.61
2023-01-22T00:53:48.023Z,101323.45
2023-01-22T00:54:52.404Z,101320.89
2023-01-22T00:55:58.536Z,101330.66
2023-01-22T00:57:01.599Z,101322.91
2023-01-22T00:58:06.388Z,101332.52
2023-01-22T00:59:10.945Z,101332.67
2023-01-22T01:00:16.541Z,101331.25
2023-01-22T01:01:21.866Z,101341.59
2023-01-22T01:02:25.881Z,101334.19
2023-01-22T01:03:34.600Z,101334.80
2023-01-22T01:04:38.288Z,101336.61
2023-01-22T01:05:41.728Z,101337.97
2023-01-22T01:07:49.269Z,101340.38
2023-01-22T01:08:52.600Z,101342.02
2023-01-22T01:09:54.953Z,101344.50
2023-01-22T01:10:59.551Z,101350.73
2023-01-22T01:12:03.172Z,101346.55
2023-01-22T01:13:07.511Z,101343.30
2023-01-22T01:14:11.817Z,101347.41
2023-01-22T01:15:16.017Z,101348.28
2023-01-22T01:16:26.991Z,101349.11
2023-01-22T01:17:30.468Z,101344.57
2023-01-22T01:18:33.499Z,101352.67
2023-01-22T01:19:38.074Z,101351.95
2023-01-22T01:20:45.813Z,101356.17
2023-01-22T01:21:49.266Z,101347.58
2023-01-22T01:22:52.284Z,101356.20
2023-01-22T01:23:56.593Z,101357.80
2023-01-22T01:24:59.023Z,101350.55
2023-01-22T01:26:03.220Z,101352.36
2023-01-22T01:27:05.958Z,101352.43
2023-01-22T01:28:08.148Z,101352.32
2023-01-22T01:29:14.875Z,101349.69
2023-01-22T01:30:20.469Z,101353.88
2023-01-22T01:31:26.545Z,101354.27
2023-01-22T01:32:31.645Z,101352.61
2023-01-22T01:33:34.915Z,101348.00
2023-01-22T01:34:38.243Z,101354.05
2023-01-22T01:35:40.386Z,101348.00
2023-01-22T01:36:49.273Z,101347.96
2023-01-22T01:37:50.650Z,101349.73
2023-01-22T01:38:56.301Z,101348.83
2023-01-22T01:39:59.057Z,101347.20
2023-01-22T01:41:02.427Z,101349.94
2023-01-22T01:42:05.703Z,101353.33
2023-01-22T01:43:10.663Z,101350.77
2023-01-22T01:44:15.449Z,101355.09
2023-01-22T01:45:20.079Z,101352.36
2023-01-22T01:46:24.667Z,101354.92
2023-01-22T01:47:30.663Z,101357.41
2023-01-22T01:48:38.600Z,101360.04
2023-01-22T01:49:47.502Z,101356.58
2023-01-22T01:50:55.099Z,101356.51
2023-01-22T01:52:02.337Z,101361.80
2023-01-22T01:53:05.531Z,101364.44
2023-01-22T01:54:09.789Z,101370.49
2023-01-22T01:55:12.217Z,101370.60
2023-01-22T01:56:21.134Z,101372.55
2023-01-22T01:57:29.303Z,101372.41
2023-01-22T01:58:34.331Z,101372.55
2023-01-22T01:59:38.966Z,101370.12
2023-01-22T02:00:44.260Z,101367.20
2023-01-22T02:01:49.551Z,101367.31
2023-01-22T02:02:53.046Z,101369.73
2023-01-22T02:04:06.041Z,101369.77
2023-01-22T02:05:09.981Z,101363.72
2023-01-22T02:06:14.547Z,101370.05
2023-01-22T02:07:16.897Z,101366.77
2023-01-22T02:08:20.185Z,101377.48
2023-01-22T02:09:22.899Z,101370.42
2023-01-22T02:10:26.200Z,101373.26
2023-01-22T02:11:30.737Z,101378.55
2023-01-22T02:12:34.408Z,101375.55
2023-01-22T02:13:40.809Z,101371.98
2023-01-22T02:14:47.490Z,101375.24
2023-01-22T02:15:51.876Z,101379.47
2023-01-22T02:17:14.646Z,101375.00
2023-01-22T02:18:20.529Z,101380.30
2023-01-22T02:19:25.192Z,101378.39
2023-01-22T02:20:28.438Z,101377.52
2023-01-22T02:21:37.627Z,101380.27
2023-01-22T02:22:39.934Z,101383.06
2023-01-22T02:23:43.242Z,101383.94
2023-01-22T02:24:46.504Z,101383.94
2023-01-22T02:25:50.880Z,101376.84
2023-01-22T02:26:54.096Z,101386.53
2023-01-22T02:27:57.521Z,101384.80
2023-01-22T02:28:59.840Z,101390.06
2023-01-22T02:30:06.018Z,101392.52
2023-01-22T02:31:11.156Z,101397.13
2023-01-22T02:32:14.333Z,101403.05
2023-01-22T02:33:17.573Z,101395.98
2023-01-22T02:34:25.388Z,101396.22
2023-01-22T02:35:28.006Z,101401.69
2023-01-22T02:36:32.474Z,101394.53
2023-01-22T02:37:34.892Z,101399.48
2023-01-22T02:38:38.323Z,101402.98
2023-01-22T02:39:41.457Z,101404.56
2023-01-22T02:40:47.360Z,101404.78
2023-01-22T02:41:49.797Z,101410.28
2023-01-22T02:42:52.986Z,101401.14
2023-01-22T02:43:56.154Z,101406.13
2023-01-22T02:44:59.701Z,101404.36
2023-01-22T02:46:03.505Z,101402.63
2023-01-22T02:47:06.182Z,101400.52
2023-01-22T02:48:08.844Z,101400.76
2023-01-22T02:49:12.270Z,101402.14
2023-01-22T02:50:14.908Z,101405.61
2023-01-22T02:51:17.261Z,101398.99
2023-01-22T02:52:23.324Z,101401.79
2023-01-22T02:53:27.554Z,101407.65
2023-01-22T02:54:29.820Z,101404.67
2023-01-22T02:55:33.013Z,101407.20
2023-01-22T02:56:36.753Z,101406.34
2023-01-22T02:57:39.988Z,101409.91
2023-01-22T02:58:45.349Z,101408.03
2023-01-22T02:59:47.833Z,101409.80
2023-01-22T03:00:52.995Z,101408.86
2023-01-22T03:01:58.676Z,101414.44
2023-01-22T03:03:04.284Z,101417.20
2023-01-22T03:04:14.712Z,101411.05
2023-01-22T03:05:18.555Z,101412.56
2023-01-22T03:06:22.762Z,101408.97
2023-01-22T03:07:26.050Z,101409.87
2023-01-22T03:08:30.553Z,101408.93
2023-01-22T03:09:34.670Z,101412.60
2023-01-22T03:10:37.885Z,101413.67
2023-01-22T03:11:41.145Z,101411.34
2023-01-22T03:13:04.092Z,101415.68
2023-01-22T03:14:25.458Z,101415.61
2023-01-22T03:15:47.800Z,101417.70
2023-01-22T03:17:10.118Z,101419.57
2023-01-22T03:18:31.982Z,101415.74
2023-01-22T03:19:55.359Z,101418.67
2023-01-22T03:21:14.837Z,101419.20
2023-01-22T03:22:18.319Z,101422.73
2023-01-22T03:23:21.463Z,101422.20
2023-01-22T03:24:24.842Z,101421.72
2023-01-22T03:25:27.312Z,101420.95
2023-01-22T03:26:32.101Z,101421.05
2023-01-22T03:27:35.892Z,101415.78
2023-01-22T03:28:38.778Z,101428.00
2023-01-22T03:29:42.058Z,101426.11
2023-01-22T03:30:45.368Z,101422.52
2023-01-22T03:31:50.658Z,101424.99
2023-01-22T03:32:57.471Z,101424.13
2023-01-22T03:34:01.174Z,101426.50
2023-01-22T03:35:04.412Z,101428.27
2023-01-22T03:36:11.430Z,101431.09
2023-01-22T03:37:16.772Z,101431.19
2023-01-22T03:38:21.262Z,101434.45
2023-01-22T03:39:27.575Z,101429.16
2023-01-22T03:40:30.680Z,101434.84
2023-01-22T03:41:33.700Z,101430.10
2023-01-22T03:42:38.073Z,101433.56
2023-01-22T03:43:42.786Z,101432.73
2023-01-22T03:44:47.956Z,101443.09
2023-01-22T03:45:52.079Z,101439.69
2023-01-22T03:46:57.078Z,101443.42
2023-01-22T03:47:59.847Z,101446.71
2023-01-22T03:49:05.076Z,101438.70
2023-01-22T03:50:09.253Z,101443.93
2023-01-22T03:51:13.965Z,101445.33
2023-01-22T03:52:17.044Z,101445.14
2023-01-22T03:53:20.303Z,101444.30
2023-01-22T03:54:23.915Z,101449.69
2023-01-22T03:55:27.331Z,101445.36
2023-01-22T03:56:30.843Z,101450.83
2023-01-22T03:57:38.144Z,101450.80
2023-01-22T03:58:42.028Z,101450.98
2023-01-22T03:59:46.262Z,101448.35
2023-01-22T04:00:50.412Z,101453.77
2023-01-22T04:01:54.214Z,101452.27
2023-01-22T04:02:57.571Z,101455.03
2023-01-22T04:04:01.959Z,101452.45
2023-01-22T04:05:05.544Z,101462.38
2023-01-22T04:06:09.407Z,101459.62
2023-01-22T04:07:12.987Z,101464.90
2023-01-22T04:08:16.152Z,101463.84
2023-01-22T04:09:19.452Z,101478.98
2023-01-22T04:10:23.039Z,101460.52
2023-01-22T04:11:25.664Z,101463.98
2023-01-22T04:12:31.239Z,101476.33
2023-01-22T04:13:35.139Z,101468.64
2023-01-22T04:14:38.665Z,101473.08
2023-01-22T04:15:42.937Z,101472.05
2023-01-22T04:16:48.455Z,101471.19
2023-01-22T04:17:56.747Z,101473.67
2023-01-22T04:19:10.970Z,101475.62
2023-01-22T04:20:28.272Z,101467.53
2023-01-22T04:21:38.083Z,101476.33
2023-01-22T04:22:43.082Z,101477.22
2023-01-22T04:23:49.338Z,101472.94
2023-01-22T04:24:52.348Z,101479.88
2023-01-22T04:25:56.345Z,101476.39
2023-01-22T04:26:59.582Z,101481.93
2023-01-22T04:28:04.075Z,101492.41
2023-01-22T04:29:07.369Z,101482.83
2023-01-22T04:30:13.476Z,101493.38
2023-01-22T04:31:17.044Z,101495.95
2023-01-22T04:32:38.573Z,101504.04
2023-01-22T04:33:42.975Z,101498.63
2023-01-22T04:34:48.126Z,101499.38
2023-01-22T04:35:56.198Z,101507.07
2023-01-22T04:37:02.175Z,101513.33
2023-01-22T04:38:08.143Z,101504.66
2023-01-22T04:39:11.578Z,101498.43
2023-01-22T04:40:15.004Z,101514.11
2023-01-22T04:41:19.881Z,101510.56
2023-01-22T04:42:24.191Z,101515.80
2023-01-22T04:43:28.071Z,101510.46
2023-01-22T04:44:31.371Z,101514.01
2023-01-22T04:45:38.173Z,101516.89
2023-01-22T04:46:40.535Z,101518.58
2023-01-22T04:47:44.843Z,101512.72
2023-01-22T04:48:49.655Z,101515.14
2023-01-22T04:49:55.236Z,101518.66
2023-01-22T04:50:57.617Z,101522.17
2023-01-22T04:52:01.822Z,101518.86
2023-01-22T04:53:06.109Z,101519.64
2023-01-22T04:54:08.863Z,101519.59
2023-01-22T04:55:12.243Z,101522.92
2023-01-22T04:56:17.752Z,101522.92
2023-01-22T04:57:21.648Z,101522.17
2023-01-22T04:58:26.403Z,101523.88
2023-01-22T04:59:31.347Z,101523.91
2023-01-22T05:00:34.960Z,101526.56
2023-01-22T05:01:37.727Z,101529.06
2023-01-22T05:02:42.512Z,101527.47
2023-01-22T05:03:45.934Z,101524.67
2023-01-22T05:04:48.316Z,101525.41
2023-01-22T05:05:51.619Z,101526.17
2023-01-22T05:06:54.777Z,101520.31
2023-01-22T05:07:59.379Z,101532.58
2023-01-22T05:09:02.709Z,101531.48
2023-01-22T05:10:08.605Z,101529.88
2023-01-22T05:11:11.878Z,101535.08
2023-01-22T05:12:19.620Z,101526.23
2023-01-22T05:13:25.069Z,101530.34
2023-01-22T05:14:28.817Z,101530.22
2023-01-22T05:15:33.539Z,101526.75
2023-01-22T05:16:39.387Z,101531.91
2023-01-22T05:17:42.004Z,101534.55
2023-01-22T05:18:48.023Z,101544.55
2023-01-22T05:19:51.561Z,101540.02
2023-01-22T05:20:55.765Z,101544.44
2023-01-22T05:22:00.765Z,101540.05
2023-01-22T05:23:04.932Z,101541.05
2023-01-22T05:24:09.860Z,101546.17
2023-01-22T05:25:15.464Z,101543.52
2023-01-22T05:26:19.208Z,101544.41
2023-01-22T05:27:27.104Z,101534.63
2023-01-22T05:28:32.030Z,101539.86
2023-01-22T05:29:47.164Z,101545.03
2023-01-22T05:31:12.374Z,101543.36
2023-01-22T05:32:26.355Z,101550.27
2023-01-22T05:34:43.722Z,101545.20
2023-01-22T05:35:49.933Z,101552.31
2023-01-22T05:36:57.110Z,101558.44
2023-01-22T05:38:02.139Z,101557.68
2023-01-22T05:39:05.563Z,101562.87
2023-01-22T05:40:11.133Z,101563.75
2023-01-22T05:41:14.465Z,101565.71
2023-01-22T05:42:18.112Z,101570.05
2023-01-22T05:43:25.654Z,101569.48
2023-01-22T05:44:33.623Z,101568.63
2023-01-22T05:45:37.667Z,101571.09
2023-01-22T05:46:43.062Z,101576.48
2023-01-22T05:47:58.151Z,101574.01
2023-01-22T05:49:03.441Z,101575.58
2023-01-22T05:50:08.847Z,101575.48
2023-01-22T05:51:13.331Z,101579.91
2023-01-22T05:52:17.089Z,101579.35
2023-01-22T05:53:21.749Z,101581.02
2023-01-22T05:54:25.250Z,101573.09
2023-01-22T05:55:29.383Z,101578.20
2023-01-22T05:56:31.850Z,101588.75
2023-01-22T05:57:37.591Z,101581.55
2023-01-22T05:58:41.156Z,101580.71
2023-01-22T05:59:44.758Z,101582.27
2023-01-22T06:00:48.084Z,101591.14
2023-01-22T06:01:52.075Z,101586.64
2023-01-22T06:02:59.768Z,101591.89
2023-01-22T06:04:05.256Z,101586.59
2023-01-22T06:05:08.247Z,101591.78
2023-01-22T06:06:13.105Z,101589.16
2023-01-22T06:07:17.720Z,101590.02
2023-01-22T06:08:20.528Z,101587.17
2023-01-22T06:09:27.379Z,101583.01
2023-01-22T06:10:31.496Z,101590.70
2023-01-22T06:11:35.433Z,101584.44
2023-01-22T06:12:38.620Z,101588.72
2023-01-22T06:13:42.537Z,101585.73
2023-01-22T06:14:47.931Z,101587.32
2023-01-22T06:15:54.185Z,101585.59
2023-01-22T06:17:03.433Z,101587.25
2023-01-22T06:18:14.655Z,101596.14
2023-01-22T06:19:19.820Z,101598.77
2023-01-22T06:20:28.227Z,101598.83
2023-01-22T06:21:32.560Z,101602.30
2023-01-22T06:22:36.276Z,101603.24
2023-01-22T06:23:39.855Z,101602.40
2023-01-22T06:24:47.362Z,101600.59
2023-01-22T06:25:56.295Z,101595.16
2023-01-22T06:27:00.011Z,101600.64
2023-01-22T06:28:06.535Z,101604.03
2023-01-22T06:29:10.050Z,101609.39
2023-01-22T06:30:17.140Z,101604.92
2023-01-22T06:31:21.178Z,101604.98
2023-01-22T06:32:24.710Z,101603.14
2023-01-22T06:33:29.423Z,101602.90
2023-01-22T06:34:32.683Z,101609.81
2023-01-22T06:35:36.151Z,101608.90
2023-01-22T06:36:43.530Z,101612.34
2023-01-22T06:37:46.863Z,101608.79
2023-01-22T06:38:50.572Z,101610.56
2023-01-22T06:39:55.963Z,101610.50
2023-01-22T06:41:01.176Z,101604.20
2023-01-22T06:42:05.201Z,101612.18
2023-01-22T06:43:10.829Z,101613.73
2023-01-22T06:44:16.834Z,101613.80
2023-01-22T06:45:21.236Z,101619.77
2023-01-22T06:46:25.488Z,101614.64
2023-01-22T06:47:47.678Z,101624.09
2023-01-22T06:48:51.266Z,101627.61
2023-01-22T06:49:55.397Z,101631.75
2023-01-22T06:50:59.594Z,101635.24
2023-01-22T06:52:03.248Z,101630.02
2023-01-22T06:53:06.749Z,101640.41
2023-01-22T06:54:12.326Z,101643.77
2023-01-22T06:55:16.158Z,101650.28
2023-01-22T06:56:19.885Z,101642.58
2023-01-22T06:57:22.759Z,101650.52
2023-01-22T06:58:26.664Z,101642.81
2023-01-22T06:59:31.052Z,101649.02
2023-01-22T07:00:34.510Z,101642.77
2023-01-22T07:01:39.821Z,101650.56
2023-01-22T07:02:43.406Z,101650.28
2023-01-22T07:03:46.683Z,101654.93
2023-01-22T07:04:49.885Z,101650.61
2023-01-22T07:05:56.639Z,101653.41
2023-01-22T07:07:00.040Z,101652.39
2023-01-22T07:08:04.790Z,101652.22
2023-01-22T07:09:08.204Z,101659.14
2023-01-22T07:14:03.573Z,101655.70
2023-01-22T07:15:08.542Z,101656.47
2023-01-22T07:16:12.009Z,101663.34
2023-01-22T07:17:15.550Z,101657.94
2023-01-22T07:18:19.694Z,101656.00
2023-01-22T07:19:23.288Z,101669.09
2023-01-22T07:20:28.583Z,101663.39
2023-01-22T07:21:32.223Z,101665.94
2023-01-22T07:22:35.712Z,101671.22
2023-01-22T07:23:39.515Z,101668.27
2023-01-22T07:24:42.588Z,101668.22
2023-01-22T07:25:46.299Z,101667.58
2023-01-22T07:26:50.236Z,101673.69
2023-01-22T07:27:53.243Z,101668.20
2023-01-22T07:28:57.661Z,101673.48
2023-01-22T07:30:01.067Z,101671.20
2023-01-22T07:31:04.183Z,101670.41
2023-01-22T07:32:06.917Z,101668.66
2023-01-22T07:33:12.891Z,101671.34
2023-01-22T07:34:22.810Z,101678.30
2023-01-22T07:35:26.124Z,101672.69
2023-01-22T07:36:29.508Z,101670.44
2023-01-22T07:37:33.984Z,101670.44
2023-01-22T07:38:36.623Z,101663.58
2023-01-22T07:39:40.014Z,101662.25
2023-01-22T07:40:47.348Z,101666.28
2023-01-22T07:41:50.690Z,101668.17
2023-01-22T07:42:55.039Z,101673.64
2023-01-22T07:44:01.148Z,101669.27
2023-01-22T07:45:05.094Z,101669.38
2023-01-22T07:46:09.097Z,101672.91
2023-01-22T07:47:14.295Z,101676.27
2023-01-22T07:48:17.569Z,101674.53
2023-01-22T07:49:20.765Z,101669.96
2023-01-22T07:50:26.838Z,101676.14
2023-01-22T07:51:30.119Z,101679.35
2023-01-22T07:52:33.783Z,101678.41
2023-01-22T07:53:36.028Z,101678.00
2023-01-22T07:54:40.792Z,101679.52
2023-01-22T07:55:44.915Z,101679.70
2023-01-22T07:56:47.643Z,101683.18
2023-01-22T07:57:53.632Z,101679.61
2023-01-22T07:58:57.008Z,101674.41
2023-01-22T08:00:00.503Z,101680.53
2023-01-22T08:01:07.878Z,101688.27
2023-01-22T08:02:13.849Z,101682.72
2023-01-22T08:03:17.105Z,101690.74
2023-01-22T08:04:20.339Z,101687.67
2023-01-22T08:05:23.010Z,101692.14
2023-01-22T08:06:26.447Z,101692.14
2023-01-22T08:07:32.705Z,101686.78
2023-01-22T08:08:36.580Z,101684.17
2023-01-22T08:09:39.877Z,101688.39
2023-01-22T08:10:43.505Z,101691.17
2023-01-22T08:11:46.795Z,101689.28
2023-01-22T08:12:50.089Z,101698.86
2023-01-22T08:13:53.491Z,101691.81
2023-01-22T08:14:57.650Z,101694.40
2023-01-22T08:16:00.356Z,101692.16
2023-01-22T08:17:04.012Z,101694.09
2023-01-22T08:18:08.249Z,101705.26
2023-01-22T08:19:11.748Z,101700.37
2023-01-22T08:20:19.494Z,101700.30
2023-01-22T08:21:22.962Z,101706.06
2023-01-22T08:22:26.022Z,101696.85
2023-01-22T08:23:31.493Z,101707.84
2023-01-22T08:24:37.628Z,101703.78
2023-01-22T08:25:42.477Z,101709.10
2023-01-22T08:26:45.984Z,101705.64
2023-01-22T08:27:48.247Z,101704.64
2023-01-22T08:28:51.427Z,101708.16
2023-01-22T08:29:55.992Z,101700.82
2023-01-22T08:30:59.481Z,101705.95
2023-01-22T08:32:02.236Z,101706.08
2023-01-22T08:33:05.557Z,101718.00
2023-01-22T08:34:07.746Z,101714.73
2023-01-22T08:35:10.066Z,101713.70
2023-01-22T08:36:12.416Z,101711.19
2023-01-22T08:37:15.828Z,101713.02
2023-01-22T08:38:18.582Z,101717.24
2023-01-22T08:39:20.842Z,101710.65
2023-01-22T08:40:23.407Z,101709.95
2023-01-22T08:41:26.594Z,101704.64
2023-01-22T08:42:29.902Z,101706.27
2023-01-22T08:43:33.301Z,101709.33
2023-01-22T08:44:35.657Z,101706.34
2023-01-22T08:45:40.233Z,101714.10
2023-01-22T08:46:43.723Z,101709.67
2023-01-22T08:47:45.963Z,101710.23
2023-01-22T08:48:51.868Z,101708.99
2023-01-22T08:49:55.272Z,101708.00
2023-01-22T08:51:03.900Z,101708.14
2023-01-22T08:52:07.139Z,101712.52
2023-01-22T08:53:09.842Z,101712.23
2023-01-22T08:54:13.179Z,101709.41
2023-01-22T08:55:16.659Z,101712.80
2023-01-22T08:56:20.889Z,101716.89
2023-01-22T08:57:24.214Z,101711.78
2023-01-22T08:58:29.786Z,101705.39
2023-01-22T08:59:33.098Z,101717.81
2023-01-22T09:00:37.869Z,101718.52
2023-01-22T09:01:41.763Z,101709.70
2023-01-22T09:02:44.004Z,101713.77
2023-01-22T09:03:46.672Z,101705.03
2023-01-22T09:04:49.040Z,101713.72
2023-01-22T09:05:52.651Z,101710.00
2023-01-22T09:06:56.157Z,101711.31
2023-01-22T09:08:01.333Z,101709.41
2023-01-22T09:09:04.732Z,101711.05
2023-01-22T09:10:08.329Z,101713.31
2023-01-22T09:11:10.478Z,101711.23
2023-01-22T09:12:15.878Z,101718.25
2023-01-22T09:13:18.854Z,101717.98
2023-01-22T09:14:22.255Z,101718.33
2023-01-22T09:15:25.333Z,101706.22
2023-01-22T09:16:28.076Z,101703.71
2023-01-22T09:17:31.401Z,101715.53
2023-01-22T09:18:34.917Z,101712.97
2023-01-22T09:19:40.093Z,101707.91
2023-01-22T09:20:45.100Z,101718.00
2023-01-22T09:21:48.463Z,101709.78
2023-01-22T09:22:52.806Z,101717.70
2023-01-22T09:23:56.306Z,101721.38
2023-01-22T09:24:59.698Z,101714.39
2023-01-22T09:26:02.795Z,101720.02
2023-01-22T09:27:05.570Z,101708.80
2023-01-22T09:28:11.474Z,101714.70
2023-01-22T09:29:14.561Z,101713.52
2023-01-22T09:30:19.199Z,101717.79
2023-01-22T09:31:23.613Z,101722.00
2023-01-22T09:32:26.959Z,101719.05
2023-01-22T09:33:29.651Z,101722.59
2023-01-22T09:34:33.122Z,101713.86
2023-01-22T09:35:36.532Z,101711.23
2023-01-22T09:36:39.606Z,101714.73
2023-01-22T09:37:42.330Z,101716.57
2023-01-22T09:38:45.805Z,101717.47
2023-01-22T09:39:49.622Z,101714.06
2023-01-22T09:40:55.509Z,101721.61
2023-01-22T09:42:00.479Z,101721.18
2023-01-22T09:43:21.537Z,101715.63
2023-01-22T09:44:28.730Z,101724.41
2023-01-22T09:45:33.473Z,101716.61
2023-01-22T09:46:38.113Z,101721.73
2023-01-22T09:47:43.288Z,101722.65
2023-01-22T09:48:48.455Z,101719.39
2023-01-22T09:49:54.801Z,101726.48
2023-01-22T09:50:57.174Z,101728.45
2023-01-22T09:52:05.155Z,101727.77
2023-01-22T09:53:11.459Z,101726.83
2023-01-22T09:54:17.745Z,101724.55
2023-01-22T09:55:22.970Z,101737.23
2023-01-22T09:56:27.294Z,101729.20
2023-01-22T09:57:32.477Z,101728.85
2023-01-22T09:58:35.884Z,101729.34
2023-01-22T09:59:53.460Z,101728.36
2023-01-22T10:01:00.486Z,101735.47
2023-01-22T10:02:05.002Z,101730.27
2023-01-22T10:03:16.365Z,101729.27
2023-01-22T10:04:25.603Z,101732.95
2023-01-22T10:05:33.584Z,101735.22
2023-01-22T10:06:36.873Z,101736.52
2023-01-22T10:07:41.109Z,101736.33
2023-01-22T10:09:01.628Z,101741.89
2023-01-22T10:10:19.612Z,101734.23
2023-01-22T10:11:22.096Z,101732.59
2023-01-22T10:12:26.139Z,101740.66
2023-01-22T10:13:35.400Z,101734.58
2023-01-22T10:14:39.324Z,101738.48
2023-01-22T10:15:42.829Z,101737.66
2023-01-22T10:16:45.773Z,101730.52
2023-01-22T10:17:49.836Z,101730.39
2023-01-22T10:18:56.888Z,101736.44
2023-01-22T10:20:01.223Z,101738.06
2023-01-22T10:21:07.377Z,101741.59
2023-01-22T10:22:23.090Z,101746.09
2023-01-22T10:23:26.824Z,101744.14
2023-01-22T10:24:31.654Z,101744.14
2023-01-22T10:25:34.979Z,101741.07
2023-01-22T10:26:41.083Z,101741.18
2023-01-22T10:27:45.737Z,101735.63
2023-01-22T10:28:50.434Z,101743.86
2023-01-22T10:30:00.410Z,101737.55
2023-01-22T10:31:04.594Z,101737.30
2023-01-22T10:32:26.362Z,101744.09
2023-01-22T10:33:29.827Z,101738.48
2023-01-22T10:34:37.561Z,101738.87
2023-01-22T10:35:44.711Z,101733.02
2023-01-22T10:36:51.455Z,101743.30
2023-01-22T10:37:55.599Z,101734.51
2023-01-22T10:39:15.742Z,101737.11
2023-01-22T10:40:23.701Z,101738.11
2023-01-22T10:41:28.711Z,101740.09
2023-01-22T10:42:32.064Z,101737.17
2023-01-22T10:43:37.917Z,101742.56
2023-01-22T10:44:41.117Z,101739.13
2023-01-22T10:45:51.717Z,101741.07
2023-01-22T10:46:56.172Z,101746.94
2023-01-22T10:48:06.730Z,101747.53
2023-01-22T10:49:20.991Z,101738.85
2023-01-22T10:50:24.323Z,101745.75
2023-01-22T10:51:30.404Z,101738.65
2023-01-22T10:52:38.710Z,101746.59
2023-01-22T10:53:52.141Z,101743.67
2023-01-22T10:54:58.472Z,101745.14
2023-01-22T10:56:04.603Z,101741.70
2023-01-22T10:57:09.051Z,101746.38
2023-01-22T10:58:18.444Z,101737.47
2023-01-22T10:59:22.993Z,101738.84
2023-01-22T11:00:37.081Z,101735.63
2023-01-22T11:01:37.608Z,101738.55
2023-01-22T11:02:45.532Z,101745.90
2023-01-22T11:03:49.607Z,101746.17
2023-01-22T11:04:53.835Z,101740.89
2023-01-22T11:06:00.566Z,101741.80
2023-01-22T11:07:08.306Z,101746.89
2023-01-22T11:08:16.980Z,101756.38
2023-01-22T11:09:27.139Z,101751.23
2023-01-22T11:10:44.761Z,101748.67
2023-01-22T11:11:49.771Z,101758.54
2023-01-22T11:12:54.836Z,101752.41
2023-01-22T11:14:06.107Z,101753.93
2023-01-22T11:15:24.093Z,101743.94
2023-01-22T11:16:29.499Z,101753.52
2023-01-22T11:17:37.313Z,101752.97
2023-01-22T11:18:41.923Z,101751.25
2023-01-22T11:19:48.032Z,101760.74
2023-01-22T11:20:53.177Z,101752.63
2023-01-22T11:21:58.469Z,101758.01
2023-01-22T11:23:12.510Z,101752.95
2023-01-22T11:24:23.971Z,101753.52
2023-01-22T11:25:31.689Z,101755.98
2023-01-22T11:26:49.621Z,101756.27
2023-01-22T11:27:57.875Z,101750.16
2023-01-22T11:29:03.052Z,101747.59
2023-01-22T11:30:19.163Z,101751.80
2023-01-22T11:31:33.259Z,101751.73
2023-01-22T11:32:56.806Z,101748.19
2023-01-22T11:34:05.014Z,101753.33
2023-01-22T11:35:20.225Z,101754.78
2023-01-22T11:36:30.084Z,101750.77
2023-01-22T11:37:37.983Z,101741.23
2023-01-22T11:38:45.983Z,101749.92
2023-01-22T11:39:55.637Z,101750.77
2023-01-22T11:41:03.872Z,101749.03
2023-01-22T11:42:23.958Z,101747.55
2023-01-22T11:43:29.257Z,101762.47
2023-01-22T11:44:37.236Z,101757.05
2023-01-22T11:45:42.524Z,101758.04
2023-01-22T11:47:02.637Z,101760.70
2023-01-22T11:48:07.493Z,101762.20
2023-01-22T11:49:15.599Z,101752.39
2023-01-22T11:50:27.148Z,101756.03
2023-01-22T11:51:32.085Z,101760.28
2023-01-22T11:52:41.889Z,101759.61
2023-01-22T11:54:01.055Z,101761.91
2023-01-22T11:55:15.829Z,101763.07
2023-01-22T11:56:38.766Z,101760.88
2023-01-22T11:57:45.824Z,101768.55
2023-01-22T11:58:56.516Z,101770.35
2023-01-22T12:00:01.830Z,101766.70
2023-01-22T12:01:08.733Z,101782.20
2023-01-22T12:02:16.488Z,101769.95
2023-01-22T12:03:22.160Z,101778.83
2023-01-22T12:04:47.070Z,101772.48
2023-01-22T12:07:29.283Z,101773.73
2023-01-22T12:08:34.449Z,101769.16
2023-01-22T12:09:42.558Z,101775.28
2023-01-22T12:11:00.167Z,101775.33
2023-01-22T12:12:10.465Z,101776.97
2023-01-22T12:13:15.101Z,101772.90
2023-01-22T12:14:23.206Z,101784.08
2023-01-22T12:15:28.495Z,101779.91
2023-01-22T12:16:38.476Z,101774.66
2023-01-22T12:17:47.759Z,101781.75
2023-01-22T12:19:09.539Z,101777.91
2023-01-22T12:20:27.953Z,101782.41
2023-01-22T12:21:40.550Z,101772.47
2023-01-22T12:22:49.074Z,101780.56
2023-01-22T12:23:54.227Z,101775.28
2023-01-22T12:25:14.872Z,101777.17
2023-01-22T12:26:21.553Z,101785.64
2023-01-22T12:27:29.359Z,101777.75
2023-01-22T12:28:39.906Z,101780.41
2023-01-22T12:29:48.828Z,101776.56
2023-01-22T12:30:56.798Z,101780.95
2023-01-22T12:32:06.424Z,101786.80
2023-01-22T12:33:12.547Z,101781.75
2023-01-22T12:34:21.990Z,101784.10
2023-01-22T12:35:28.489Z,101787.82
2023-01-22T12:36:33.791Z,101798.64